sensor_id;sensor_type;location;lat;lon;timestamp;temperature;humidity
72202;SHT30;60105;54.956;73.412;2022-09-01T00:02:15;19.27;46.64
72202;SHT30;60105;54.956;73.412;2022-09-01T00:04:43;19.23;46.93
72202;SHT30;60105;54.956;73.412;2022-09-01T00:07:20;19.28;46.67
72202;SHT30;60105;54.956;73.412;2022-09-01T00:09:56;19.30;46.49
72202;SHT30;60105;54.956;73.412;2022-09-01T00:12:22;19.30;46.53
72202;SHT30;60105;54.956;73.412;2022-09-01T00:14:51;19.34;46.88
72202;SHT30;60105;54.956;73.412;2022-09-01T00:17:17;19.37;46.29
72202;SHT30;60105;54.956;73.412;2022-09-01T00:19:43;19.43;46.15
72202;SHT30;60105;54.956;73.412;2022-09-01T00:22:10;19.46;46.10
72202;SHT30;60105;54.956;73.412;2022-09-01T00:24:36;19.43;46.02
72202;SHT30;60105;54.956;73.412;2022-09-01T00:27:03;19.47;46.08
72202;SHT30;60105;54.956;73.412;2022-09-01T00:29:29;19.49;45.92
72202;SHT30;60105;54.956;73.412;2022-09-01T00:32:05;19.51;46.20
72202;SHT30;60105;54.956;73.412;2022-09-01T00:34:32;19.50;46.05
72202;SHT30;60105;54.956;73.412;2022-09-01T00:36:58;19.51;46.22
72202;SHT30;60105;54.956;73.412;2022-09-01T00:39:24;19.51;46.36
72202;SHT30;60105;54.956;73.412;2022-09-01T00:41:51;19.54;46.25
72202;SHT30;60105;54.956;73.412;2022-09-01T00:44:22;19.55;46.46
72202;SHT30;60105;54.956;73.412;2022-09-01T00:46:54;19.55;46.37
72202;SHT30;60105;54.956;73.412;2022-09-01T00:49:49;19.54;46.96
72202;SHT30;60105;54.956;73.412;2022-09-01T00:52:47;19.53;46.55
72202;SHT30;60105;54.956;73.412;2022-09-01T00:55:22;19.55;46.51
72202;SHT30;60105;54.956;73.412;2022-09-01T00:57:53;19.54;47.19
72202;SHT30;60105;54.956;73.412;2022-09-01T01:00:26;19.51;47.90
72202;SHT30;60105;54.956;73.412;2022-09-01T01:02:53;19.50;47.49
72202;SHT30;60105;54.956;73.412;2022-09-01T01:05:32;19.47;47.61
72202;SHT30;60105;54.956;73.412;2022-09-01T01:08:03;19.54;47.40
72202;SHT30;60105;54.956;73.412;2022-09-01T01:10:31;19.53;47.97
72202;SHT30;60105;54.956;73.412;2022-09-01T01:13:10;19.53;47.77
72202;SHT30;60105;54.956;73.412;2022-09-01T01:15:37;19.49;47.76
72202;SHT30;60105;54.956;73.412;2022-09-01T01:18:05;19.44;47.96
72202;SHT30;60105;54.956;73.412;2022-09-01T01:20:36;19.41;48.54
72202;SHT30;60105;54.956;73.412;2022-09-01T01:26:45;19.31;48.73
72202;SHT30;60105;54.956;73.412;2022-09-01T01:29:23;19.31;49.30
72202;SHT30;60105;54.956;73.412;2022-09-01T01:31:49;19.27;48.35
72202;SHT30;60105;54.956;73.412;2022-09-01T01:34:28;19.28;48.24
72202;SHT30;60105;54.956;73.412;2022-09-01T01:36:55;19.27;48.86
72202;SHT30;60105;54.956;73.412;2022-09-01T01:39:35;19.26;48.19
72202;SHT30;60105;54.956;73.412;2022-09-01T01:42:06;19.24;48.49
72202;SHT30;60105;54.956;73.412;2022-09-01T01:44:45;19.14;48.81
72202;SHT30;60105;54.956;73.412;2022-09-01T01:47:23;19.14;49.06
72202;SHT30;60105;54.956;73.412;2022-09-01T01:49:50;19.16;48.99
72202;SHT30;60105;54.956;73.412;2022-09-01T01:52:22;19.10;48.90
72202;SHT30;60105;54.956;73.412;2022-09-01T01:55:00;19.14;49.78
72202;SHT30;60105;54.956;73.412;2022-09-01T01:57:26;19.13;49.55
72202;SHT30;60105;54.956;73.412;2022-09-01T01:59:57;19.14;49.81
72202;SHT30;60105;54.956;73.412;2022-09-01T02:02:24;19.23;49.91
72202;SHT30;60105;54.956;73.412;2022-09-01T02:04:50;19.33;49.75
72202;SHT30;60105;54.956;73.412;2022-09-01T02:07:17;19.41;49.04
72202;SHT30;60105;54.956;73.412;2022-09-01T02:09:43;19.43;48.93
72202;SHT30;60105;54.956;73.412;2022-09-01T02:12:14;19.50;48.81
72202;SHT30;60105;54.956;73.412;2022-09-01T02:14:44;19.51;49.49
72202;SHT30;60105;54.956;73.412;2022-09-01T02:17:10;19.57;49.37
72202;SHT30;60105;54.956;73.412;2022-09-01T02:19:46;19.61;49.15
72202;SHT30;60105;54.956;73.412;2022-09-01T02:22:13;19.68;49.69
72202;SHT30;60105;54.956;73.412;2022-09-01T02:24:41;19.71;49.88
72202;SHT30;60105;54.956;73.412;2022-09-01T02:27:14;19.68;49.85
72202;SHT30;60105;54.956;73.412;2022-09-01T02:29:47;19.67;50.13
72202;SHT30;60105;54.956;73.412;2022-09-01T02:32:13;19.70;49.75
72202;SHT30;60105;54.956;73.412;2022-09-01T02:34:57;19.71;50.26
72202;SHT30;60105;54.956;73.412;2022-09-01T02:37:29;19.71;49.69
72202;SHT30;60105;54.956;73.412;2022-09-01T02:39:55;19.70;49.87
72202;SHT30;60105;54.956;73.412;2022-09-01T02:42:27;19.68;49.77
72202;SHT30;60105;54.956;73.412;2022-09-01T02:44:55;19.70;50.16
72202;SHT30;60105;54.956;73.412;2022-09-01T02:47:23;19.64;50.11
72202;SHT30;60105;54.956;73.412;2022-09-01T02:49:53;19.58;50.44
72202;SHT30;60105;54.956;73.412;2022-09-01T02:52:19;19.61;50.56
72202;SHT30;60105;54.956;73.412;2022-09-01T02:54:46;19.60;51.34
72202;SHT30;60105;54.956;73.412;2022-09-01T02:57:15;19.67;50.91
72202;SHT30;60105;54.956;73.412;2022-09-01T02:59:42;19.75;50.98
72202;SHT30;60105;54.956;73.412;2022-09-01T03:02:09;19.78;50.43
72202;SHT30;60105;54.956;73.412;2022-09-01T03:04:36;19.74;50.36
72202;SHT30;60105;54.956;73.412;2022-09-01T03:07:04;19.84;50.95
72202;SHT30;60105;54.956;73.412;2022-09-01T03:09:31;19.94;51.80
72202;SHT30;60105;54.956;73.412;2022-09-01T03:11:58;20.02;50.50
72202;SHT30;60105;54.956;73.412;2022-09-01T03:14:29;20.12;51.08
72202;SHT30;60105;54.956;73.412;2022-09-01T03:16:55;20.23;50.44
72202;SHT30;60105;54.956;73.412;2022-09-01T03:19:22;20.32;50.03
72202;SHT30;60105;54.956;73.412;2022-09-01T03:21:48;20.39;49.20
72202;SHT30;60105;54.956;73.412;2022-09-01T03:24:25;20.50;49.43
72202;SHT30;60105;54.956;73.412;2022-09-01T03:26:51;20.60;50.12
72202;SHT30;60105;54.956;73.412;2022-09-01T03:29:19;20.63;49.24
72202;SHT30;60105;54.956;73.412;2022-09-01T03:31:46;20.70;50.11
72202;SHT30;60105;54.956;73.412;2022-09-01T03:34:17;20.81;49.72
72202;SHT30;60105;54.956;73.412;2022-09-01T03:36:49;20.92;49.16
72202;SHT30;60105;54.956;73.412;2022-09-01T03:39:18;21.05;48.46
72202;SHT30;60105;54.956;73.412;2022-09-01T03:41:45;21.17;48.18
72202;SHT30;60105;54.956;73.412;2022-09-01T03:44:12;21.28;47.71
72202;SHT30;60105;54.956;73.412;2022-09-01T03:46:42;21.43;47.67
72202;SHT30;60105;54.956;73.412;2022-09-01T03:49:08;21.55;46.86
72202;SHT30;60105;54.956;73.412;2022-09-01T03:51:38;21.65;46.50
72202;SHT30;60105;54.956;73.412;2022-09-01T03:54:06;21.75;47.12
72202;SHT30;60105;54.956;73.412;2022-09-01T03:56:43;21.85;46.53
72202;SHT30;60105;54.956;73.412;2022-09-01T03:59:15;22.00;47.39
72202;SHT30;60105;54.956;73.412;2022-09-01T04:01:43;22.06;46.55
72202;SHT30;60105;54.956;73.412;2022-09-01T04:04:11;22.20;45.31
72202;SHT30;60105;54.956;73.412;2022-09-01T04:06:51;22.36;44.52
72202;SHT30;60105;54.956;73.412;2022-09-01T04:09:17;22.43;44.94
72202;SHT30;60105;54.956;73.412;2022-09-01T04:11:49;22.54;44.79
72202;SHT30;60105;54.956;73.412;2022-09-01T04:14:16;22.64;45.45
72202;SHT30;60105;54.956;73.412;2022-09-01T04:16:45;22.66;45.06
72202;SHT30;60105;54.956;73.412;2022-09-01T04:19:34;22.75;44.96
72202;SHT30;60105;54.956;73.412;2022-09-01T04:22:02;22.84;45.15
72202;SHT30;60105;54.956;73.412;2022-09-01T04:24:39;22.86;44.59
72202;SHT30;60105;54.956;73.412;2022-09-01T04:27:13;22.94;44.39
72202;SHT30;60105;54.956;73.412;2022-09-01T04:29:45;23.03;44.47
72202;SHT30;60105;54.956;73.412;2022-09-01T04:32:11;23.12;44.42
72202;SHT30;60105;54.956;73.412;2022-09-01T04:34:42;23.17;44.56
72202;SHT30;60105;54.956;73.412;2022-09-01T04:37:21;23.24;45.03
72202;SHT30;60105;54.956;73.412;2022-09-01T04:39:54;23.30;44.64
72202;SHT30;60105;54.956;73.412;2022-09-01T04:42:31;23.43;44.21
72202;SHT30;60105;54.956;73.412;2022-09-01T04:44:59;23.50;44.38
72202;SHT30;60105;54.956;73.412;2022-09-01T04:47:26;23.60;44.70
72202;SHT30;60105;54.956;73.412;2022-09-01T04:50:08;23.64;44.11
72202;SHT30;60105;54.956;73.412;2022-09-01T04:52:44;23.71;44.13
72202;SHT30;60105;54.956;73.412;2022-09-01T04:55:20;23.78;43.99
72202;SHT30;60105;54.956;73.412;2022-09-01T04:57:48;23.86;44.10
72202;SHT30;60105;54.956;73.412;2022-09-01T05:00:19;24.00;43.93
72202;SHT30;60105;54.956;73.412;2022-09-01T05:02:54;24.06;43.76
72202;SHT30;60105;54.956;73.412;2022-09-01T05:05:28;24.16;43.63
72202;SHT30;60105;54.956;73.412;2022-09-01T05:07:55;24.25;43.78
72202;SHT30;60105;54.956;73.412;2022-09-01T05:10:25;24.39;43.85
72202;SHT30;60105;54.956;73.412;2022-09-01T05:13:14;24.48;43.85
72202;SHT30;60105;54.956;73.412;2022-09-01T05:15:44;24.53;43.70
72202;SHT30;60105;54.956;73.412;2022-09-01T05:18:18;24.62;43.45
72202;SHT30;60105;54.956;73.412;2022-09-01T05:21:04;24.73;44.01
72202;SHT30;60105;54.956;73.412;2022-09-01T05:23:39;24.80;43.10
72202;SHT30;60105;54.956;73.412;2022-09-01T05:26:15;24.87;43.78
72202;SHT30;60105;54.956;73.412;2022-09-01T05:28:57;24.91;44.14
72202;SHT30;60105;54.956;73.412;2022-09-01T05:31:27;25.06;43.53
72202;SHT30;60105;54.956;73.412;2022-09-01T05:33:54;25.15;43.45
72202;SHT30;60105;54.956;73.412;2022-09-01T05:36:23;25.25;43.25
72202;SHT30;60105;54.956;73.412;2022-09-01T05:38:51;25.35;42.84
72202;SHT30;60105;54.956;73.412;2022-09-01T05:41:19;25.46;43.08
72202;SHT30;60105;54.956;73.412;2022-09-01T05:43:48;25.55;43.25
72202;SHT30;60105;54.956;73.412;2022-09-01T05:46:22;25.66;43.04
72202;SHT30;60105;54.956;73.412;2022-09-01T05:48:50;25.69;43.28
72202;SHT30;60105;54.956;73.412;2022-09-01T05:51:20;25.79;43.00
72202;SHT30;60105;54.956;73.412;2022-09-01T05:53:52;25.87;42.99
72202;SHT30;60105;54.956;73.412;2022-09-01T05:56:25;25.93;42.77
72202;SHT30;60105;54.956;73.412;2022-09-01T05:58:59;26.04;42.76
72202;SHT30;60105;54.956;73.412;2022-09-01T06:01:27;26.09;43.34
72202;SHT30;60105;54.956;73.412;2022-09-01T06:03:57;26.17;42.79
72202;SHT30;60105;54.956;73.412;2022-09-01T06:06:44;26.21;43.04
72202;SHT30;60105;54.956;73.412;2022-09-01T06:09:15;26.21;43.10
72202;SHT30;60105;54.956;73.412;2022-09-01T06:11:51;26.33;43.47
72202;SHT30;60105;54.956;73.412;2022-09-01T06:14:19;26.38;43.33
72202;SHT30;60105;54.956;73.412;2022-09-01T06:16:47;26.44;43.20
72202;SHT30;60105;54.956;73.412;2022-09-01T06:19:15;26.51;42.77
72202;SHT30;60105;54.956;73.412;2022-09-01T06:21:45;26.54;42.78
72202;SHT30;60105;54.956;73.412;2022-09-01T06:24:12;26.58;41.78
72202;SHT30;60105;54.956;73.412;2022-09-01T06:26:39;26.65;42.43
72202;SHT30;60105;54.956;73.412;2022-09-01T06:29:16;26.68;41.91
72202;SHT30;60105;54.956;73.412;2022-09-01T06:31:51;26.71;41.30
72202;SHT30;60105;54.956;73.412;2022-09-01T06:34:18;26.78;41.52
72202;SHT30;60105;54.956;73.412;2022-09-01T06:36:46;26.79;41.56
72202;SHT30;60105;54.956;73.412;2022-09-01T06:39:15;26.78;41.78
72202;SHT30;60105;54.956;73.412;2022-09-01T06:41:51;26.84;41.79
72202;SHT30;60105;54.956;73.412;2022-09-01T06:44:22;26.91;41.68
72202;SHT30;60105;54.956;73.412;2022-09-01T06:47:01;26.99;41.18
72202;SHT30;60105;54.956;73.412;2022-09-01T06:49:28;27.03;40.59
72202;SHT30;60105;54.956;73.412;2022-09-01T06:52:07;27.06;40.85
72202;SHT30;60105;54.956;73.412;2022-09-01T06:54:35;27.12;41.12
72202;SHT30;60105;54.956;73.412;2022-09-01T06:57:05;27.13;41.05
72202;SHT30;60105;54.956;73.412;2022-09-01T06:59:37;27.17;41.04
72202;SHT30;60105;54.956;73.412;2022-09-01T07:02:04;27.23;41.01
72202;SHT30;60105;54.956;73.412;2022-09-01T07:04:55;27.23;41.59
72202;SHT30;60105;54.956;73.412;2022-09-01T07:07:22;27.25;41.20
72202;SHT30;60105;54.956;73.412;2022-09-01T07:10:21;27.33;39.36
72202;SHT30;60105;54.956;73.412;2022-09-01T07:12:56;27.32;39.37
72202;SHT30;60105;54.956;73.412;2022-09-01T07:15:24;27.32;39.52
72202;SHT30;60105;54.956;73.412;2022-09-01T07:17:54;27.34;39.74
72202;SHT30;60105;54.956;73.412;2022-09-01T07:20:31;27.39;39.91
72202;SHT30;60105;54.956;73.412;2022-09-01T07:23:03;27.47;39.64
72202;SHT30;60105;54.956;73.412;2022-09-01T07:25:41;27.40;39.42
72202;SHT30;60105;54.956;73.412;2022-09-01T07:28:22;27.39;39.75
72202;SHT30;60105;54.956;73.412;2022-09-01T07:30:51;27.34;39.90
72202;SHT30;60105;54.956;73.412;2022-09-01T07:33:22;27.42;39.67
72202;SHT30;60105;54.956;73.412;2022-09-01T07:36:05;27.49;38.97
72202;SHT30;60105;54.956;73.412;2022-09-01T07:38:33;27.49;38.96
72202;SHT30;60105;54.956;73.412;2022-09-01T07:41:00;27.51;39.14
72202;SHT30;60105;54.956;73.412;2022-09-01T07:43:44;27.47;38.17
72202;SHT30;60105;54.956;73.412;2022-09-01T07:46:30;27.49;37.68
72202;SHT30;60105;54.956;73.412;2022-09-01T07:48:59;27.47;38.66
72202;SHT30;60105;54.956;73.412;2022-09-01T07:51:28;27.46;39.23
72202;SHT30;60105;54.956;73.412;2022-09-01T07:53:57;27.47;39.12
72202;SHT30;60105;54.956;73.412;2022-09-01T07:56:34;27.54;38.77
72202;SHT30;60105;54.956;73.412;2022-09-01T07:59:01;27.55;39.68
72202;SHT30;60105;54.956;73.412;2022-09-01T08:01:27;27.60;39.46
72202;SHT30;60105;54.956;73.412;2022-09-01T08:03:57;27.58;39.00
72202;SHT30;60105;54.956;73.412;2022-09-01T08:06:26;27.60;39.09
72202;SHT30;60105;54.956;73.412;2022-09-01T08:08:56;27.60;38.97
72202;SHT30;60105;54.956;73.412;2022-09-01T08:11:28;27.57;39.19
72202;SHT30;60105;54.956;73.412;2022-09-01T08:13:56;27.63;39.25
72202;SHT30;60105;54.956;73.412;2022-09-01T08:16:28;27.68;39.52
72202;SHT30;60105;54.956;73.412;2022-09-01T08:18:57;27.73;38.14
72202;SHT30;60105;54.956;73.412;2022-09-01T08:21:34;27.65;38.60
72202;SHT30;60105;54.956;73.412;2022-09-01T08:24:02;27.71;39.64
72202;SHT30;60105;54.956;73.412;2022-09-01T08:26:42;27.71;39.53
72202;SHT30;60105;54.956;73.412;2022-09-01T08:29:08;27.74;38.20
72202;SHT30;60105;54.956;73.412;2022-09-01T08:31:47;27.76;38.38
72202;SHT30;60105;54.956;73.412;2022-09-01T08:34:14;27.85;38.93
72202;SHT30;60105;54.956;73.412;2022-09-01T08:36:42;27.84;39.18
72202;SHT30;60105;54.956;73.412;2022-09-01T08:39:09;27.77;39.37
72202;SHT30;60105;54.956;73.412;2022-09-01T08:41:48;27.77;39.46
72202;SHT30;60105;54.956;73.412;2022-09-01T08:47:10;27.68;38.88
72202;SHT30;60105;54.956;73.412;2022-09-01T08:49:38;27.65;38.53
72202;SHT30;60105;54.956;73.412;2022-09-01T08:52:40;27.64;38.85
72202;SHT30;60105;54.956;73.412;2022-09-01T08:55:30;27.55;38.39
72202;SHT30;60105;54.956;73.412;2022-09-01T08:57:59;27.63;38.49
72202;SHT30;60105;54.956;73.412;2022-09-01T09:00:43;27.70;38.36
72202;SHT30;60105;54.956;73.412;2022-09-01T09:03:33;27.68;38.05
72202;SHT30;60105;54.956;73.412;2022-09-01T09:08:58;27.74;38.57
72202;SHT30;60105;54.956;73.412;2022-09-01T09:15:06;27.70;38.86
72202;SHT30;60105;54.956;73.412;2022-09-01T09:17:38;27.68;38.56
72202;SHT30;60105;54.956;73.412;2022-09-01T09:20:06;27.67;39.01
72202;SHT30;60105;54.956;73.412;2022-09-01T09:22:33;27.77;39.54
72202;SHT30;60105;54.956;73.412;2022-09-01T09:25:14;27.71;39.58
72202;SHT30;60105;54.956;73.412;2022-09-01T09:27:51;27.71;40.11
72202;SHT30;60105;54.956;73.412;2022-09-01T09:30:26;27.76;40.62
72202;SHT30;60105;54.956;73.412;2022-09-01T09:33:03;27.64;41.15
72202;SHT30;60105;54.956;73.412;2022-09-01T09:35:40;27.77;40.72
72202;SHT30;60105;54.956;73.412;2022-09-01T09:41:19;27.80;40.86
72202;SHT30;60105;54.956;73.412;2022-09-01T09:54:33;27.64;41.64
72202;SHT30;60105;54.956;73.412;2022-09-01T10:05:20;27.43;42.11
72202;SHT30;60105;54.956;73.412;2022-09-01T10:07:48;27.36;42.79
72202;SHT30;60105;54.956;73.412;2022-09-01T10:10:40;27.34;42.88
72202;SHT30;60105;54.956;73.412;2022-09-01T10:13:15;27.29;42.58
72202;SHT30;60105;54.956;73.412;2022-09-01T10:15:46;27.19;42.96
72202;SHT30;60105;54.956;73.412;2022-09-01T10:18:16;27.17;43.35
72202;SHT30;60105;54.956;73.412;2022-09-01T10:20:50;27.19;43.72
72202;SHT30;60105;54.956;73.412;2022-09-01T10:23:23;27.17;43.90
72202;SHT30;60105;54.956;73.412;2022-09-01T10:26:06;27.20;43.63
72202;SHT30;60105;54.956;73.412;2022-09-01T10:28:40;27.19;43.54
72202;SHT30;60105;54.956;73.412;2022-09-01T10:31:09;27.20;43.81
72202;SHT30;60105;54.956;73.412;2022-09-01T10:33:35;27.32;43.42
72202;SHT30;60105;54.956;73.412;2022-09-01T10:36:07;27.33;43.31
72202;SHT30;60105;54.956;73.412;2022-09-01T10:38:44;27.37;43.49
72202;SHT30;60105;54.956;73.412;2022-09-01T10:44:12;27.42;42.89
72202;SHT30;60105;54.956;73.412;2022-09-01T10:46:44;27.33;42.79
72202;SHT30;60105;54.956;73.412;2022-09-01T10:51:56;27.29;42.64
72202;SHT30;60105;54.956;73.412;2022-09-01T10:57:33;27.30;43.33
72202;SHT30;60105;54.956;73.412;2022-09-01T11:08:45;27.19;44.13
72202;SHT30;60105;54.956;73.412;2022-09-01T11:14:20;27.22;44.03
72202;SHT30;60105;54.956;73.412;2022-09-01T11:17:20;27.22;44.18
72202;SHT30;60105;54.956;73.412;2022-09-01T11:23:26;27.27;44.45
72202;SHT30;60105;54.956;73.412;2022-09-01T11:25:58;27.17;44.98
72202;SHT30;60105;54.956;73.412;2022-09-01T11:36:34;27.03;46.16
72202;SHT30;60105;54.956;73.412;2022-09-01T11:39:20;26.91;46.13
72202;SHT30;60105;54.956;73.412;2022-09-01T11:42:25;26.86;47.08
72202;SHT30;60105;54.956;73.412;2022-09-01T11:44:58;26.82;47.33
72202;SHT30;60105;54.956;73.412;2022-09-01T11:47:42;26.74;47.94
72202;SHT30;60105;54.956;73.412;2022-09-01T11:50:26;26.72;48.25
72202;SHT30;60105;54.956;73.412;2022-09-01T11:55:41;26.75;48.58
72202;SHT30;60105;54.956;73.412;2022-09-01T12:01:23;26.62;48.93
72202;SHT30;60105;54.956;73.412;2022-09-01T12:03:56;26.61;49.54
72202;SHT30;60105;54.956;73.412;2022-09-01T12:06:26;26.61;49.59
72202;SHT30;60105;54.956;73.412;2022-09-01T12:09:04;26.59;49.87
72202;SHT30;60105;54.956;73.412;2022-09-01T12:11:32;26.52;50.12
72202;SHT30;60105;54.956;73.412;2022-09-01T12:14:11;26.36;50.63
72202;SHT30;60105;54.956;73.412;2022-09-01T12:16:55;26.23;51.38
72202;SHT30;60105;54.956;73.412;2022-09-01T12:19:25;25.97;52.08
72202;SHT30;60105;54.956;73.412;2022-09-01T12:22:06;25.86;52.50
72202;SHT30;60105;54.956;73.412;2022-09-01T12:24:52;25.70;52.97
72202;SHT30;60105;54.956;73.412;2022-09-01T12:27:20;25.46;53.50
72202;SHT30;60105;54.956;73.412;2022-09-01T12:29:49;25.37;53.66
72202;SHT30;60105;54.956;73.412;2022-09-01T12:32:16;25.29;53.62
72202;SHT30;60105;54.956;73.412;2022-09-01T12:35:16;25.27;53.80
72202;SHT30;60105;54.956;73.412;2022-09-01T12:37:50;25.08;54.32
72202;SHT30;60105;54.956;73.412;2022-09-01T12:40:40;25.03;54.52
72202;SHT30;60105;54.956;73.412;2022-09-01T12:43:06;24.95;54.45
72202;SHT30;60105;54.956;73.412;2022-09-01T12:45:41;24.88;54.61
72202;SHT30;60105;54.956;73.412;2022-09-01T12:48:32;24.80;55.02
72202;SHT30;60105;54.956;73.412;2022-09-01T12:51:21;24.63;55.22
72202;SHT30;60105;54.956;73.412;2022-09-01T12:53:59;24.46;55.62
72202;SHT30;60105;54.956;73.412;2022-09-01T12:56:36;24.39;55.75
72202;SHT30;60105;54.956;73.412;2022-09-01T12:59:23;24.25;56.06
72202;SHT30;60105;54.956;73.412;2022-09-01T13:01:50;24.12;56.35
72202;SHT30;60105;54.956;73.412;2022-09-01T13:04:28;23.97;56.85
72202;SHT30;60105;54.956;73.412;2022-09-01T13:07:08;23.86;57.07
72202;SHT30;60105;54.956;73.412;2022-09-01T13:09:44;23.77;57.41
72202;SHT30;60105;54.956;73.412;2022-09-01T13:12:18;23.67;57.19
72202;SHT30;60105;54.956;73.412;2022-09-01T13:14:45;23.60;57.31
72202;SHT30;60105;54.956;73.412;2022-09-01T13:17:14;23.40;57.17
72202;SHT30;60105;54.956;73.412;2022-09-01T13:19:41;23.22;57.41
72202;SHT30;60105;54.956;73.412;2022-09-01T13:22:12;23.13;57.51
72202;SHT30;60105;54.956;73.412;2022-09-01T13:24:49;23.09;57.64
72202;SHT30;60105;54.956;73.412;2022-09-01T13:27:20;23.05;57.80
72202;SHT30;60105;54.956;73.412;2022-09-01T13:29:57;22.96;57.84
72202;SHT30;60105;54.956;73.412;2022-09-01T13:32:29;22.89;58.34
72202;SHT30;60105;54.956;73.412;2022-09-01T13:35:06;22.91;58.41
72202;SHT30;60105;54.956;73.412;2022-09-01T13:37:37;22.82;57.65
72202;SHT30;60105;54.956;73.412;2022-09-01T13:40:04;22.73;57.48
72202;SHT30;60105;54.956;73.412;2022-09-01T13:42:33;22.66;58.55
72202;SHT30;60105;54.956;73.412;2022-09-01T13:45:00;22.66;57.38
72202;SHT30;60105;54.956;73.412;2022-09-01T13:47:26;22.54;57.47
72202;SHT30;60105;54.956;73.412;2022-09-01T13:49:52;22.49;57.31
72202;SHT30;60105;54.956;73.412;2022-09-01T13:52:19;22.44;57.58
72202;SHT30;60105;54.956;73.412;2022-09-01T13:54:56;22.37;57.82
72202;SHT30;60105;54.956;73.412;2022-09-01T13:57:27;22.37;57.95
72202;SHT30;60105;54.956;73.412;2022-09-01T13:59:55;22.30;58.04
72202;SHT30;60105;54.956;73.412;2022-09-01T14:02:33;22.20;58.28
72202;SHT30;60105;54.956;73.412;2022-09-01T14:05:05;22.17;58.18
72202;SHT30;60105;54.956;73.412;2022-09-01T14:07:31;22.14;58.41
72202;SHT30;60105;54.956;73.412;2022-09-01T14:09:58;22.06;58.54
72202;SHT30;60105;54.956;73.412;2022-09-01T14:12:25;22.04;58.54
72202;SHT30;60105;54.956;73.412;2022-09-01T14:14:56;21.97;58.74
72202;SHT30;60105;54.956;73.412;2022-09-01T14:17:23;21.94;58.96
72202;SHT30;60105;54.956;73.412;2022-09-01T14:19:50;21.93;59.13
72202;SHT30;60105;54.956;73.412;2022-09-01T14:22:21;21.89;59.03
72202;SHT30;60105;54.956;73.412;2022-09-01T14:24:48;21.86;59.27
72202;SHT30;60105;54.956;73.412;2022-09-01T14:27:20;21.86;59.46
72202;SHT30;60105;54.956;73.412;2022-09-01T14:29:50;21.76;59.76
72202;SHT30;60105;54.956;73.412;2022-09-01T14:32:20;21.78;59.98
72202;SHT30;60105;54.956;73.412;2022-09-01T14:34:56;21.70;60.16
72202;SHT30;60105;54.956;73.412;2022-09-01T14:37:24;21.69;60.35
72202;SHT30;60105;54.956;73.412;2022-09-01T14:39:55;21.66;60.53
72202;SHT30;60105;54.956;73.412;2022-09-01T14:42:26;21.53;60.89
72202;SHT30;60105;54.956;73.412;2022-09-01T14:44:54;21.49;61.02
72202;SHT30;60105;54.956;73.412;2022-09-01T14:47:21;21.46;61.24
72202;SHT30;60105;54.956;73.412;2022-09-01T14:49:53;21.41;61.43
72202;SHT30;60105;54.956;73.412;2022-09-01T14:52:20;21.37;61.79
72202;SHT30;60105;54.956;73.412;2022-09-01T14:54:47;21.25;61.94
72202;SHT30;60105;54.956;73.412;2022-09-01T14:57:24;21.24;62.00
72202;SHT30;60105;54.956;73.412;2022-09-01T14:59:50;21.19;62.28
72202;SHT30;60105;54.956;73.412;2022-09-01T15:02:20;21.18;62.38
72202;SHT30;60105;54.956;73.412;2022-09-01T15:04:52;21.14;62.63
72202;SHT30;60105;54.956;73.412;2022-09-01T15:07:20;21.11;62.71
72202;SHT30;60105;54.956;73.412;2022-09-01T15:09:46;21.05;63.08
72202;SHT30;60105;54.956;73.412;2022-09-01T15:12:13;21.00;63.22
72202;SHT30;60105;54.956;73.412;2022-09-01T15:14:50;20.98;63.30
72202;SHT30;60105;54.956;73.412;2022-09-01T15:17:17;20.94;63.69
72202;SHT30;60105;54.956;73.412;2022-09-01T15:19:43;20.88;63.83
72202;SHT30;60105;54.956;73.412;2022-09-01T15:22:10;20.88;63.94
72202;SHT30;60105;54.956;73.412;2022-09-01T15:24:43;20.83;64.20
72202;SHT30;60105;54.956;73.412;2022-09-01T15:27:10;20.81;64.20
72202;SHT30;60105;54.956;73.412;2022-09-01T15:29:37;20.76;64.70
72202;SHT30;60105;54.956;73.412;2022-09-01T15:32:09;20.67;64.83
72202;SHT30;60105;54.956;73.412;2022-09-01T15:34:36;20.59;65.18
72202;SHT30;60105;54.956;73.412;2022-09-01T15:37:07;20.46;65.93
72202;SHT30;60105;54.956;73.412;2022-09-01T15:39:40;20.43;66.05
72202;SHT30;60105;54.956;73.412;2022-09-01T15:42:06;20.37;66.27
72202;SHT30;60105;54.956;73.412;2022-09-01T15:44:37;20.29;66.47
72202;SHT30;60105;54.956;73.412;2022-09-01T15:47:04;20.22;66.72
72202;SHT30;60105;54.956;73.412;2022-09-01T15:49:30;20.15;66.99
72202;SHT30;60105;54.956;73.412;2022-09-01T15:51:56;20.11;66.96
72202;SHT30;60105;54.956;73.412;2022-09-01T15:54:23;19.99;67.43
72202;SHT30;60105;54.956;73.412;2022-09-01T15:56:50;19.96;67.50
72202;SHT30;60105;54.956;73.412;2022-09-01T15:59:16;19.85;68.01
72202;SHT30;60105;54.956;73.412;2022-09-01T16:01:50;19.78;68.29
72202;SHT30;60105;54.956;73.412;2022-09-01T16:04:18;19.73;68.33
72202;SHT30;60105;54.956;73.412;2022-09-01T16:06:44;19.70;68.46
72202;SHT30;60105;54.956;73.412;2022-09-01T16:09:11;19.73;68.16
72202;SHT30;60105;54.956;73.412;2022-09-01T16:11:46;19.68;68.25
72202;SHT30;60105;54.956;73.412;2022-09-01T16:14:13;19.61;68.49
72202;SHT30;60105;54.956;73.412;2022-09-01T16:16:52;19.49;68.94
72202;SHT30;60105;54.956;73.412;2022-09-01T16:22:27;19.37;68.57
72202;SHT30;60105;54.956;73.412;2022-09-01T16:25:14;19.31;68.81
72202;SHT30;60105;54.956;73.412;2022-09-01T16:27:44;19.23;69.10
72202;SHT30;60105;54.956;73.412;2022-09-01T16:30:24;19.17;69.64
72202;SHT30;60105;54.956;73.412;2022-09-01T16:33:03;19.12;69.17
72202;SHT30;60105;54.956;73.412;2022-09-01T16:35:41;19.05;69.62
72202;SHT30;60105;54.956;73.412;2022-09-01T16:38:53;19.00;69.68
72202;SHT30;60105;54.956;73.412;2022-09-01T16:41:33;18.92;69.80
72202;SHT30;60105;54.956;73.412;2022-09-01T16:47:29;18.86;70.12
72202;SHT30;60105;54.956;73.412;2022-09-01T16:58:19;18.73;70.73
72202;SHT30;60105;54.956;73.412;2022-09-01T17:01:12;18.61;71.13
72202;SHT30;60105;54.956;73.412;2022-09-01T17:07:05;18.51;71.77
72202;SHT30;60105;54.956;73.412;2022-09-01T17:15:12;18.40;71.87
72202;SHT30;60105;54.956;73.412;2022-09-01T17:18:02;18.31;71.92
72202;SHT30;60105;54.956;73.412;2022-09-01T17:20:40;18.23;72.16
72202;SHT30;60105;54.956;73.412;2022-09-01T17:23:23;18.18;72.49
72202;SHT30;60105;54.956;73.412;2022-09-01T17:26:26;18.10;72.66